Time;durP1;ratioP1;P1;durP2;ratioP2;P2;SDS_P1;SDS_P2;PMS_P1;PMS_P2;Temp;Humidity;BMP_temperature;BMP_pressure;BME280_temperature;BME280_humidity;BME280_pressure;Samples;Min_cycle;Max_cycle;Signal;HPM_P1;HPM_P2
2022/11/18 00:00:50;;;;;;;23.50;19.53;;;3.20;99.90;;;;;;5028565;28;20290;-66
2022/11/18 00:03:17;;;;;;;22.50;18.30;;;3.30;99.90;;;;;;5028359;28;20581;-63
2022/11/18 00:05:42;;;;;;;26.70;19.07;;;3.30;99.90;;;;;;5028176;28;20411;-63
2022/11/18 00:08:08;;;;;;;23.80;18.37;;;3.30;99.90;;;;;;5027394;28;20214;-64
2022/11/18 00:10:37;;;;;;;24.53;19.47;;;3.30;99.90;;;;;;5027891;28;20494;-65
2022/11/18 00:15:47;;;;;;;24.47;18.10;;;3.20;99.90;;;;;;5022700;28;20296;-65
2022/11/18 00:18:12;;;;;;;22.87;18.30;;;3.20;99.90;;;;;;5025102;28;20276;-64
2022/11/18 00:20:38;;;;;;;22.57;17.83;;;3.30;99.90;;;;;;5029705;28;20807;-76
2022/11/18 00:23:03;;;;;;;22.17;18.83;;;3.30;99.90;;;;;;5029258;28;20314;-64
2022/11/18 00:25:29;;;;;;;25.70;18.63;;;3.20;99.90;;;;;;5028567;28;20218;-79
2022/11/18 00:27:54;;;;;;;22.73;18.43;;;3.20;99.90;;;;;;5039346;28;20242;-81
2022/11/18 00:30:21;;;;;;;20.90;17.10;;;3.10;99.90;;;;;;5029369;28;20210;-73
2022/11/18 00:32:46;;;;;;;24.37;18.30;;;3.10;99.90;;;;;;5046042;28;20226;-78
2022/11/18 00:35:12;;;;;;;22.40;18.23;;;3.20;99.90;;;;;;5044726;28;20223;-80
2022/11/18 00:37:37;;;;;;;21.57;17.07;;;3.10;99.90;;;;;;5033961;28;20203;-74
2022/11/18 00:40:03;;;;;;;23.07;16.93;;;3.10;99.90;;;;;;5028559;28;20196;-74
2022/11/18 00:45:12;;;;;;;26.40;17.17;;;3.10;99.90;;;;;;5029157;28;20731;-70
2022/11/18 00:47:38;;;;;;;22.07;17.67;;;3.10;99.90;;;;;;5026592;28;20194;-69
2022/11/18 00:50:04;;;;;;;22.00;17.50;;;3.00;99.90;;;;;;5027781;28;20214;-71
2022/11/18 00:52:29;;;;;;;22.60;16.93;;;3.00;99.90;;;;;;5028542;28;20211;-70
2022/11/18 00:54:55;;;;;;;22.13;17.93;;;3.00;99.90;;;;;;5030383;28;20290;-78
2022/11/18 00:57:20;;;;;;;20.07;16.67;;;3.00;99.90;;;;;;5029822;28;20230;-80
2022/11/18 00:59:46;;;;;;;20.37;16.90;;;3.00;99.90;;;;;;5023018;28;20217;-66
2022/11/18 01:02:11;;;;;;;19.60;16.77;;;3.00;99.90;;;;;;5019308;28;20313;-75
2022/11/18 01:04:37;;;;;;;21.10;16.73;;;3.00;99.90;;;;;;5034786;28;20203;-76
2022/11/18 01:07:02;;;;;;;21.60;17.03;;;3.00;99.90;;;;;;5033245;28;20213;-76
2022/11/18 01:09:28;;;;;;;23.37;18.50;;;3.00;99.90;;;;;;5025554;28;20225;-68
2022/11/18 01:14:37;;;;;;;20.67;16.07;;;3.00;99.90;;;;;;5021132;28;21188;-67
2022/11/18 01:17:03;;;;;;;21.03;17.20;;;3.00;99.90;;;;;;5025298;28;20234;-68
2022/11/18 01:19:29;;;;;;;17.23;15.33;;;3.00;99.90;;;;;;5025741;28;20622;-70
2022/11/18 01:21:55;;;;;;;17.90;15.70;;;2.90;99.90;;;;;;5025044;28;20218;-74
2022/11/18 01:24:21;;;;;;;20.30;16.23;;;3.00;99.90;;;;;;5025079;28;20202;-58
2022/11/18 01:26:47;;;;;;;18.63;15.13;;;2.90;99.90;;;;;;5026496;28;20195;-59
2022/11/18 01:29:13;;;;;;;18.53;15.67;;;2.90;99.90;;;;;;5025056;28;20210;-59
2022/11/18 01:31:39;;;;;;;21.53;17.03;;;2.90;99.90;;;;;;5024498;28;20197;-58
2022/11/18 01:34:04;;;;;;;20.37;15.63;;;2.90;99.90;;;;;;5027258;28;20696;-58
2022/11/18 01:36:30;;;;;;;19.43;16.73;;;2.80;99.90;;;;;;5028328;28;20206;-57
2022/11/18 01:38:56;;;;;;;20.80;16.70;;;2.90;99.90;;;;;;5025967;28;20195;-58
2022/11/18 01:41:24;;;;;;;20.43;17.47;;;2.90;99.90;;;;;;5026253;28;20211;-57
2022/11/18 01:43:53;;;;;;;19.23;15.70;;;2.80;99.90;;;;;;5026920;28;20226;-58
2022/11/18 01:46:20;;;;;;;18.97;15.80;;;2.80;99.90;;;;;;5025582;28;20199;-58
2022/11/18 01:48:49;;;;;;;17.17;15.37;;;2.70;99.90;;;;;;5028596;28;20207;-58
2022/11/18 01:51:18;;;;;;;17.53;15.60;;;2.70;99.90;;;;;;5029782;28;20209;-58
2022/11/18 01:54:00;;;;;;;17.53;15.47;;;2.70;99.90;;;;;;5029267;28;20260;-57
2022/11/18 01:56:38;;;;;;;17.67;15.17;;;2.70;99.90;;;;;;5025716;28;20288;-58
2022/11/18 01:59:11;;;;;;;16.67;14.90;;;2.70;99.90;;;;;;5027455;28;20207;-63
2022/11/18 02:01:36;;;;;;;19.20;16.40;;;2.70;99.90;;;;;;5026664;28;20210;-58
2022/11/18 02:04:02;;;;;;;20.97;16.23;;;2.70;99.90;;;;;;5027432;28;20190;-57
2022/11/18 02:06:28;;;;;;;18.00;16.10;;;2.70;99.90;;;;;;5024378;28;20216;-56
2022/11/18 02:08:54;;;;;;;17.77;15.80;;;2.70;99.90;;;;;;5031260;28;20695;-56
2022/11/18 02:14:07;;;;;;;18.53;15.60;;;2.70;99.90;;;;;;5033476;28;20213;-56
2022/11/18 02:16:59;;;;;;;17.57;15.67;;;2.60;99.90;;;;;;5039491;28;20664;-56
2022/11/18 02:19:44;;;;;;;19.93;16.23;;;2.60;99.90;;;;;;5034375;28;20207;-56
2022/11/18 02:22:22;;;;;;;18.80;16.80;;;2.60;99.90;;;;;;5039703;28;20202;-57
2022/11/18 02:24:50;;;;;;;19.83;15.20;;;2.60;99.90;;;;;;5033261;28;20251;-57
2022/11/18 02:27:43;;;;;;;18.60;16.60;;;2.60;99.90;;;;;;5039454;28;20227;-56
2022/11/18 02:30:11;;;;;;;18.30;16.37;;;2.60;99.90;;;;;;5032551;28;20220;-55
2022/11/18 02:32:42;;;;;;;21.30;16.57;;;2.50;99.90;;;;;;5037076;28;20195;-56
2022/11/18 02:35:37;;;;;;;22.03;17.77;;;2.50;99.90;;;;;;5037213;28;20285;-57
2022/11/18 02:38:18;;;;;;;21.23;16.80;;;2.50;99.90;;;;;;5037458;28;20235;-56
2022/11/18 02:40:48;;;;;;;23.37;16.83;;;2.50;99.90;;;;;;5034905;28;20217;-55
2022/11/18 02:43:20;;;;;;;21.07;16.50;;;2.50;99.90;;;;;;5034825;28;20362;-57
2022/11/18 02:45:50;;;;;;;18.47;16.17;;;2.50;99.90;;;;;;5035880;28;20280;-56
2022/11/18 02:48:18;;;;;;;18.90;16.60;;;2.40;99.90;;;;;;5034583;28;20279;-57
2022/11/18 02:50:47;;;;;;;20.43;16.53;;;2.40;99.90;;;;;;5033004;28;20225;-55
2022/11/18 02:53:17;;;;;;;18.93;16.77;;;2.30;99.90;;;;;;5027735;28;20213;-56
2022/11/18 02:55:44;;;;;;;17.80;15.90;;;2.20;99.90;;;;;;5025596;28;20223;-56
2022/11/18 02:58:12;;;;;;;19.13;15.90;;;2.30;99.90;;;;;;5033149;28;20221;-56
2022/11/18 03:00:37;;;;;;;20.50;17.37;;;2.30;99.90;;;;;;5027804;28;20269;-55
2022/11/18 03:03:24;;;;;;;17.57;15.67;;;2.30;99.90;;;;;;5030107;28;20233;-55
2022/11/18 03:06:03;;;;;;;19.03;15.67;;;2.30;99.90;;;;;;5031201;28;20232;-55
2022/11/18 03:08:35;;;;;;;19.23;16.27;;;2.30;99.90;;;;;;5031346;28;20257;-56
2022/11/18 03:11:16;;;;;;;20.33;17.33;;;2.30;99.90;;;;;;5028009;28;20219;-55
2022/11/18 03:14:18;;;;;;;19.03;16.57;;;2.30;99.90;;;;;;5026278;28;20241;-55
2022/11/18 03:16:59;;;;;;;19.67;17.67;;;2.40;99.90;;;;;;5027202;28;20216;-55
2022/11/18 03:20:01;;;;;;;21.40;17.90;;;2.40;99.90;;;;;;5022622;28;20226;-55
2022/11/18 03:23:05;;;;;;;23.43;18.43;;;2.40;99.90;;;;;;5026596;28;20209;-55
2022/11/18 03:25:42;;;;;;;21.67;18.07;;;2.30;99.90;;;;;;5000687;28;20248;-56
2022/11/18 03:28:37;;;;;;;22.23;18.63;;;2.30;99.90;;;;;;5028058;28;20213;-56
2022/11/18 03:31:15;;;;;;;19.77;17.30;;;2.20;99.90;;;;;;5030894;28;20210;-56
2022/11/18 03:33:53;;;;;;;23.53;18.90;;;2.20;99.90;;;;;;5039645;28;20195;-56
2022/11/18 03:36:22;;;;;;;23.27;18.97;;;2.20;99.90;;;;;;5042403;28;20194;-56
2022/11/18 03:38:52;;;;;;;26.47;19.70;;;2.20;99.90;;;;;;5037895;28;20204;-55
2022/11/18 03:41:20;;;;;;;25.80;20.37;;;2.20;99.90;;;;;;5040454;28;20197;-55
2022/11/18 03:43:56;;;;;;;22.20;19.57;;;2.20;99.90;;;;;;5043344;28;20209;-55
2022/11/18 03:46:36;;;;;;;25.07;18.93;;;2.10;99.90;;;;;;5039417;28;20212;-55
2022/11/18 03:49:06;;;;;;;22.03;19.37;;;2.10;99.90;;;;;;5037155;28;21027;-56
2022/11/18 03:51:39;;;;;;;23.23;20.23;;;2.10;99.90;;;;;;5039176;28;20205;-55
2022/11/18 03:54:20;;;;;;;26.60;21.80;;;2.10;99.90;;;;;;5043320;28;20697;-55
2022/11/18 03:56:52;;;;;;;27.97;21.53;;;2.00;99.90;;;;;;5039054;28;20284;-56
2022/11/18 03:59:23;;;;;;;24.43;20.43;;;2.00;99.90;;;;;;5037694;28;20888;-55
2022/11/18 04:02:02;;;;;;;32.03;21.27;;;1.90;99.90;;;;;;5043031;28;20200;-56
2022/11/18 04:04:28;;;;;;;27.73;22.57;;;1.90;99.90;;;;;;5039443;28;20209;-56
2022/11/18 04:07:22;;;;;;;28.17;22.23;;;1.90;99.90;;;;;;5039818;28;20194;-56
2022/11/18 04:09:56;;;;;;;27.17;20.13;;;1.90;99.90;;;;;;5039315;28;20228;-56
2022/11/18 04:12:24;;;;;;;26.50;21.47;;;1.90;99.90;;;;;;5039317;28;20555;-56
2022/11/18 04:14:54;;;;;;;27.63;22.03;;;1.80;99.90;;;;;;5039618;28;20614;-56
2022/11/18 04:17:22;;;;;;;29.57;22.30;;;1.80;99.90;;;;;;5037677;28;20614;-56
2022/11/18 04:19:48;;;;;;;29.67;22.53;;;1.80;99.90;;;;;;5037212;28;20201;-56
2022/11/18 04:22:14;;;;;;;29.70;22.17;;;1.80;99.90;;;;;;5039311;28;20292;-56
2022/11/18 04:24:40;;;;;;;30.47;23.27;;;1.80;99.90;;;;;;5039457;28;20209;-56
2022/11/18 04:27:06;;;;;;;31.73;24.53;;;1.80;99.90;;;;;;5035810;28;20209;-56
2022/11/18 04:29:32;;;;;;;34.10;23.57;;;1.70;99.90;;;;;;5029093;28;20745;-57
2022/11/18 04:31:59;;;;;;;37.70;26.17;;;1.70;99.90;;;;;;5025837;28;20210;-56
2022/11/18 04:34:24;;;;;;;38.00;26.33;;;1.70;99.90;;;;;;5028206;28;20225;-57
2022/11/18 04:36:50;;;;;;;41.13;26.83;;;1.60;99.90;;;;;;5029079;28;20218;-56
2022/11/18 04:39:16;;;;;;;34.87;26.67;;;1.60;99.90;;;;;;5027265;28;20261;-56
2022/11/18 04:41:55;;;;;;;34.70;26.93;;;1.60;99.90;;;;;;5028786;28;20203;-56
2022/11/18 04:44:31;;;;;;;36.90;26.60;;;1.70;99.90;;;;;;5025698;28;20194;-55
2022/11/18 04:47:02;;;;;;;37.43;28.60;;;1.70;99.90;;;;;;5029850;28;20212;-55
2022/11/18 04:49:28;;;;;;;38.63;28.63;;;1.70;99.90;;;;;;5027455;28;20699;-56
2022/11/18 04:51:55;;;;;;;38.57;27.90;;;1.70;99.90;;;;;;5031152;28;20258;-55
2022/11/18 04:54:21;;;;;;;40.50;28.80;;;1.70;99.90;;;;;;5041165;28;20229;-56
2022/11/18 04:56:48;;;;;;;38.43;28.43;;;1.60;99.90;;;;;;5034891;28;20556;-55
2022/11/18 04:59:16;;;;;;;39.07;28.67;;;1.60;99.90;;;;;;5037751;28;20294;-57
2022/11/18 05:01:41;;;;;;;37.07;28.20;;;1.60;99.90;;;;;;5042340;28;20308;-56
2022/11/18 05:04:11;;;;;;;35.77;27.23;;;1.50;99.90;;;;;;5035015;28;20205;-56
2022/11/18 05:06:36;;;;;;;39.60;28.93;;;1.50;99.90;;;;;;5040071;28;20710;-56
2022/11/18 05:09:02;;;;;;;40.87;27.70;;;1.50;99.90;;;;;;5038383;28;20201;-56
2022/11/18 05:14:12;;;;;;;41.57;29.07;;;1.50;99.90;;;;;;5038200;28;20271;-56
2022/11/18 05:16:38;;;;;;;42.70;28.70;;;1.40;99.90;;;;;;5038354;28;20208;-57
2022/11/18 05:19:04;;;;;;;41.70;28.53;;;1.40;99.90;;;;;;5027302;28;20217;-57
2022/11/18 05:21:30;;;;;;;41.93;28.77;;;1.40;99.90;;;;;;5024876;28;20233;-56
2022/11/18 05:23:57;;;;;;;38.90;27.70;;;1.40;99.90;;;;;;5029137;28;20232;-56
2022/11/18 05:26:23;;;;;;;38.73;27.77;;;1.40;99.90;;;;;;5038796;28;20203;-56
2022/11/18 05:28:48;;;;;;;42.83;28.13;;;1.30;99.90;;;;;;5029158;28;20192;-56
2022/11/18 05:31:15;;;;;;;37.93;26.83;;;1.30;99.90;;;;;;5025769;28;20204;-56
2022/11/18 05:33:42;;;;;;;42.90;29.23;;;1.30;99.90;;;;;;5027732;28;20788;-55
2022/11/18 05:36:19;;;;;;;39.83;27.90;;;1.30;99.90;;;;;;5027671;28;20205;-55
2022/11/18 05:38:45;;;;;;;41.83;28.67;;;1.30;99.90;;;;;;5027579;28;20212;-55
2022/11/18 05:43:09;;;;;;;40.27;28.67;;;1.30;99.90;;;;;;5027372;28;20671;-56
2022/11/18 05:44:00;;;;;;;41.70;28.00;;;1.30;99.90;;;;;;5026427;28;20204;-55
2022/11/18 05:46:26;;;;;;;44.53;28.90;;;1.30;99.90;;;;;;5028114;28;20194;-55
2022/11/18 05:48:52;;;;;;;36.87;27.23;;;1.30;99.90;;;;;;5025480;28;20664;-56
2022/11/18 05:51:18;;;;;;;36.97;25.70;;;1.40;99.90;;;;;;5026974;28;20197;-55
2022/11/18 05:53:43;;;;;;;31.87;23.83;;;1.40;99.90;;;;;;5035979;28;20299;-56
2022/11/18 05:56:26;;;;;;;34.47;25.70;;;1.50;99.90;;;;;;5030513;28;20196;-55
2022/11/18 05:58:52;;;;;;;32.00;23.63;;;1.50;99.90;;;;;;5024395;28;20209;-55
2022/11/18 06:01:26;;;;;;;34.03;22.13;;;1.40;99.90;;;;;;5027628;28;20670;-55
2022/11/18 06:03:52;;;;;;;30.17;22.50;;;1.50;99.90;;;;;;5027181;28;20193;-55
2022/11/18 06:06:21;;;;;;;32.57;20.80;;;1.50;99.90;;;;;;5025581;28;20207;-55
2022/11/18 06:08:52;;;;;;;28.57;21.47;;;1.50;99.90;;;;;;5025850;28;20269;-55
2022/11/18 06:11:19;;;;;;;27.43;20.83;;;1.40;99.90;;;;;;5026815;28;20659;-55
2022/11/18 06:13:53;;;;;;;27.17;20.70;;;1.40;99.90;;;;;;5030686;28;20222;-55
2022/11/18 06:16:23;;;;;;;24.90;20.50;;;1.40;99.90;;;;;;5023670;28;20210;-55
2022/11/18 06:18:48;;;;;;;25.67;19.20;;;1.40;99.90;;;;;;5028332;28;20236;-55
2022/11/18 06:21:14;;;;;;;30.30;21.77;;;1.50;99.90;;;;;;5027445;28;20232;-55
2022/11/18 06:23:40;;;;;;;24.10;20.23;;;1.50;99.90;;;;;;5024857;28;20298;-57
2022/11/18 06:26:08;;;;;;;23.53;19.40;;;1.40;99.90;;;;;;5026953;28;20220;-55
2022/11/18 06:28:33;;;;;;;25.87;18.40;;;1.40;99.90;;;;;;5026946;28;20269;-54
2022/11/18 06:30:59;;;;;;;25.07;20.07;;;1.50;99.90;;;;;;5029284;28;20227;-57
2022/11/18 06:33:24;;;;;;;26.47;19.33;;;1.50;99.90;;;;;;5022674;28;20194;-54
2022/11/18 06:35:50;;;;;;;26.33;18.80;;;1.50;99.90;;;;;;5026903;28;20210;-55
2022/11/18 06:38:15;;;;;;;25.13;18.90;;;1.50;99.90;;;;;;5029161;28;20622;-56
2022/11/18 06:40:43;;;;;;;23.90;18.67;;;1.50;99.90;;;;;;5023316;28;20257;-56
2022/11/18 06:48:42;;;;;;;24.40;18.33;;;1.40;99.90;;;;;;5026419;28;20730;-56
2022/11/18 06:51:08;;;;;;;21.47;17.70;;;1.40;99.90;;;;;;5025633;28;20211;-55
2022/11/18 06:53:34;;;;;;;23.10;18.37;;;1.40;99.90;;;;;;5033910;28;21239;-55
2022/11/18 06:56:06;;;;;;;25.93;19.27;;;1.40;99.90;;;;;;5028501;28;20283;-55
2022/11/18 06:58:32;;;;;;;22.37;16.23;;;1.40;99.90;;;;;;5024364;28;20278;-58
2022/11/18 07:01:16;;;;;;;22.77;17.20;;;1.30;99.90;;;;;;5025969;28;20196;-55
2022/11/18 07:03:42;;;;;;;22.57;16.40;;;1.30;99.90;;;;;;5028074;28;20236;-58
2022/11/18 07:06:09;;;;;;;21.80;16.00;;;1.30;99.90;;;;;;5034504;28;20605;-56
2022/11/18 07:08:36;;;;;;;20.67;15.27;;;1.30;99.90;;;;;;5028039;28;20214;-55
2022/11/18 07:11:07;;;;;;;22.03;17.30;;;1.30;99.90;;;;;;5030667;28;20306;-55
2022/11/18 07:13:32;;;;;;;24.13;17.03;;;1.30;99.90;;;;;;5030721;28;20200;-55
2022/11/18 07:16:06;;;;;;;20.80;16.47;;;1.30;99.90;;;;;;5028189;28;20199;-55
2022/11/18 07:18:32;;;;;;;21.30;16.90;;;1.30;99.90;;;;;;5030166;28;20205;-56
2022/11/18 07:21:01;;;;;;;22.60;16.37;;;1.30;99.90;;;;;;5030162;28;20231;-56
2022/11/18 07:23:29;;;;;;;21.00;16.07;;;1.40;99.90;;;;;;5029876;28;20265;-56
2022/11/18 07:25:54;;;;;;;21.67;17.13;;;1.30;99.90;;;;;;5025919;28;20355;-56
2022/11/18 07:28:20;;;;;;;20.20;16.80;;;1.30;99.90;;;;;;5033614;28;20736;-56
2022/11/18 07:30:46;;;;;;;21.30;17.87;;;1.30;99.90;;;;;;5028139;28;20208;-55
2022/11/18 07:33:11;;;;;;;22.70;16.33;;;1.30;99.90;;;;;;5031116;28;20201;-56
2022/11/18 07:35:36;;;;;;;19.57;15.63;;;1.30;99.90;;;;;;5030550;28;20306;-56
2022/11/18 07:38:02;;;;;;;21.63;16.50;;;1.30;99.90;;;;;;5029733;28;20570;-56
2022/11/18 07:40:27;;;;;;;19.63;16.37;;;1.30;99.90;;;;;;5038087;28;20262;-57
2022/11/18 07:42:53;;;;;;;23.00;17.13;;;1.30;99.90;;;;;;5032142;28;20662;-57
2022/11/18 07:45:18;;;;;;;22.53;16.03;;;1.30;99.90;;;;;;5027858;28;20287;-57
2022/11/18 07:47:44;;;;;;;18.67;15.13;;;1.30;99.90;;;;;;5029520;28;20898;-56
2022/11/18 07:50:09;;;;;;;19.57;15.60;;;1.30;99.90;;;;;;5029329;28;20225;-57
2022/11/18 07:52:35;;;;;;;21.37;17.23;;;1.20;99.90;;;;;;5031150;28;20204;-57
2022/11/18 07:55:00;;;;;;;23.93;15.13;;;1.30;99.90;;;;;;5028213;28;20201;-56
2022/11/18 07:57:26;;;;;;;24.47;18.10;;;1.30;99.90;;;;;;5030876;28;20553;-56
2022/11/18 07:59:51;;;;;;;19.50;15.87;;;1.30;99.90;;;;;;5039814;28;20287;-56
2022/11/18 08:02:17;;;;;;;20.07;16.40;;;1.30;99.90;;;;;;5039734;28;20288;-61
2022/11/18 08:04:42;;;;;;;21.70;16.30;;;1.40;99.90;;;;;;5039699;28;20203;-56
2022/11/18 08:07:11;;;;;;;20.03;16.53;;;1.40;99.90;;;;;;5038518;28;20665;-57
2022/11/18 08:09:36;;;;;;;20.60;16.33;;;1.40;99.90;;;;;;5028869;28;20271;-57
2022/11/18 08:12:02;;;;;;;21.47;16.37;;;1.40;99.90;;;;;;5030376;28;20553;-56
2022/11/18 08:14:27;;;;;;;23.90;17.77;;;1.50;99.90;;;;;;5027472;28;20237;-54
2022/11/18 08:16:54;;;;;;;23.60;17.33;;;1.50;99.90;;;;;;5032483;28;20202;-56
2022/11/18 08:19:19;;;;;;;25.63;18.20;;;1.50;99.90;;;;;;5028034;28;20213;-56
2022/11/18 08:21:45;;;;;;;19.97;15.97;;;1.50;99.90;;;;;;5028717;28;20199;-56
2022/11/18 08:24:10;;;;;;;20.13;17.23;;;1.50;99.90;;;;;;5032778;28;20263;-56
2022/11/18 08:26:36;;;;;;;21.90;16.33;;;1.60;99.90;;;;;;5032592;28;20218;-54
2022/11/18 08:29:01;;;;;;;22.37;17.43;;;1.60;99.90;;;;;;5032903;28;20678;-57
2022/11/18 08:31:29;;;;;;;22.87;16.83;;;1.60;99.90;;;;;;5030982;28;20199;-57
2022/11/18 08:33:56;;;;;;;22.87;17.63;;;1.60;99.90;;;;;;5027806;28;20210;-56
2022/11/18 08:36:24;;;;;;;19.07;15.90;;;1.60;99.90;;;;;;5031677;28;20260;-55
2022/11/18 08:38:50;;;;;;;20.57;17.50;;;1.70;99.90;;;;;;5028211;28;20771;-54
2022/11/18 08:41:19;;;;;;;18.70;16.70;;;1.60;99.90;;;;;;5034681;28;20236;-55
2022/11/18 08:43:44;;;;;;;19.33;17.23;;;1.60;99.90;;;;;;5029212;28;20227;-56
2022/11/18 08:46:09;;;;;;;22.97;16.17;;;1.60;99.90;;;;;;5029701;28;20568;-56
2022/11/18 08:48:35;;;;;;;20.90;15.43;;;1.60;99.90;;;;;;5030510;28;20208;-56
2022/11/18 08:51:01;;;;;;;19.83;15.57;;;1.50;99.90;;;;;;5029346;28;20226;-55
2022/11/18 08:53:27;;;;;;;17.30;14.90;;;1.50;99.90;;;;;;5031954;28;20197;-57
2022/11/18 08:55:56;;;;;;;23.17;17.07;;;1.50;99.90;;;;;;5032550;28;20789;-59
2022/11/18 08:58:22;;;;;;;18.90;14.63;;;1.40;99.90;;;;;;5026879;28;20735;-59
2022/11/18 09:00:48;;;;;;;17.40;14.13;;;1.30;99.90;;;;;;5028750;28;20201;-61
2022/11/18 09:03:13;;;;;;;16.80;14.37;;;1.20;99.90;;;;;;5035664;28;20285;-77
2022/11/18 09:05:39;;;;;;;19.37;14.63;;;1.20;99.90;;;;;;5038391;28;20220;-74
2022/11/18 09:08:05;;;;;;;18.70;14.27;;;1.10;99.90;;;;;;5037980;28;20301;-67
2022/11/18 09:10:30;;;;;;;23.27;15.43;;;1.20;99.90;;;;;;5037396;28;20222;-55
2022/11/18 09:12:55;;;;;;;19.30;15.60;;;1.20;99.90;;;;;;5033550;28;20207;-55
2022/11/18 09:15:22;;;;;;;20.40;14.77;;;1.40;99.90;;;;;;5034951;28;20244;-54
2022/11/18 09:17:48;;;;;;;18.57;15.33;;;1.40;99.90;;;;;;5026757;28;20241;-54
2022/11/18 09:20:16;;;;;;;18.93;14.83;;;1.50;99.90;;;;;;5026284;28;20241;-59
2022/11/18 09:22:41;;;;;;;27.00;15.57;;;1.70;99.90;;;;;;5026140;28;20201;-58
2022/11/18 09:25:07;;;;;;;19.67;16.40;;;1.70;99.90;;;;;;5027622;28;20260;-57
2022/11/18 09:27:32;;;;;;;17.73;14.30;;;1.70;99.90;;;;;;5027739;28;20213;-57
2022/11/18 09:29:58;;;;;;;20.53;14.03;;;1.80;99.90;;;;;;5027714;28;20611;-58
2022/11/18 09:32:23;;;;;;;16.97;13.80;;;1.70;99.90;;;;;;5025061;28;20210;-58
2022/11/18 09:34:49;;;;;;;16.83;13.33;;;1.70;99.90;;;;;;5027311;28;20222;-59
2022/11/18 09:37:14;;;;;;;16.50;13.23;;;1.60;99.90;;;;;;5025566;28;20201;-58
2022/11/18 09:39:40;;;;;;;21.83;12.70;;;1.50;99.90;;;;;;5026496;28;20575;-59
2022/11/18 09:42:21;;;;;;;16.20;13.33;;;1.50;99.90;;;;;;5026713;28;20223;-58
2022/11/18 09:44:53;;;;;;;19.17;14.70;;;1.60;99.90;;;;;;5034170;28;20573;-69
2022/11/18 09:47:32;;;;;;;21.93;15.53;;;1.60;99.90;;;;;;5029053;28;20234;-59
2022/11/18 09:50:09;;;;;;;17.23;13.13;;;1.60;99.90;;;;;;5027483;28;20236;-59
2022/11/18 09:52:45;;;;;;;18.07;12.67;;;1.60;99.90;;;;;;5036192;28;20695;-59
2022/11/18 09:55:16;;;;;;;20.07;14.10;;;1.60;99.90;;;;;;5025620;28;20215;-60
2022/11/18 09:57:51;;;;;;;20.47;14.43;;;1.60;99.90;;;;;;5033475;28;20395;-58
2022/11/18 10:00:22;;;;;;;17.90;14.30;;;1.60;99.90;;;;;;5036747;28;20208;-62
2022/11/18 10:03:06;;;;;;;12.50;10.93;;;1.60;99.90;;;;;;5036782;28;20259;-60
2022/11/18 10:05:37;;;;;;;12.60;10.10;;;1.60;99.90;;;;;;5034090;28;20694;-58
2022/11/18 10:08:41;;;;;;;11.23;9.70;;;1.60;99.90;;;;;;5036042;28;20248;-57
2022/11/18 10:11:15;;;;;;;10.80;8.37;;;1.50;99.90;;;;;;5036360;28;20691;-58
2022/11/18 10:14:21;;;;;;;10.87;8.17;;;1.50;99.90;;;;;;5036330;28;20210;-58
2022/11/18 10:17:17;;;;;;;8.80;7.73;;;1.50;99.90;;;;;;5036300;28;20198;-59
2022/11/18 10:20:13;;;;;;;7.13;6.53;;;1.50;99.90;;;;;;5022650;28;20933;-58
2022/11/18 10:22:51;;;;;;;8.17;7.30;;;1.50;99.90;;;;;;5036030;28;20760;-58
2022/11/18 10:25:17;;;;;;;7.40;6.60;;;1.50;99.90;;;;;;5031541;28;20203;-59
2022/11/18 10:27:45;;;;;;;9.67;7.00;;;1.50;99.90;;;;;;5026136;28;20210;-60
2022/11/18 10:30:14;;;;;;;8.07;7.27;;;1.50;99.90;;;;;;5025441;28;20222;-58
2022/11/18 10:33:00;;;;;;;7.47;6.77;;;1.60;99.90;;;;;;5034431;28;20230;-60
2022/11/18 10:35:31;;;;;;;7.27;6.57;;;1.60;99.90;;;;;;5035976;28;20202;-60
2022/11/18 10:38:04;;;;;;;8.30;6.60;;;1.60;99.90;;;;;;5035982;28;20568;-62
2022/11/18 10:40:32;;;;;;;7.87;6.30;;;1.60;99.90;;;;;;5036306;28;20209;-58
2022/11/18 10:42:57;;;;;;;11.00;6.90;;;1.60;99.90;;;;;;5035775;28;20280;-58
2022/11/18 10:45:28;;;;;;;10.30;7.40;;;1.70;99.90;;;;;;5036471;28;20212;-61
2022/11/18 10:48:26;;;;;;;7.73;6.57;;;1.70;99.90;;;;;;5036043;28;20699;-59
2022/11/18 10:50:53;;;;;;;6.27;5.60;;;1.70;99.90;;;;;;5020707;28;20218;-60
2022/11/18 10:53:30;;;;;;;7.80;6.67;;;1.70;99.90;;;;;;5036392;28;20579;-58
2022/11/18 10:56:02;;;;;;;7.13;6.40;;;1.80;99.90;;;;;;5036224;28;20202;-58
2022/11/18 10:58:33;;;;;;;10.90;7.43;;;1.90;99.90;;;;;;5031626;28;20302;-59
2022/11/18 11:01:20;;;;;;;9.30;7.20;;;2.00;99.90;;;;;;5031290;28;21043;-59
2022/11/18 11:04:12;;;;;;;7.10;6.00;;;2.10;99.90;;;;;;5036694;28;20475;-59
2022/11/18 11:06:38;;;;;;;7.83;7.03;;;2.10;99.90;;;;;;5034726;28;20202;-59
2022/11/18 11:09:21;;;;;;;6.87;6.13;;;2.00;99.90;;;;;;5036402;28;20592;-58
2022/11/18 11:12:22;;;;;;;9.03;7.70;;;1.90;99.90;;;;;;5034165;28;20195;-59
2022/11/18 11:14:52;;;;;;;9.70;7.53;;;1.80;99.90;;;;;;5008977;28;20191;-59
2022/11/18 11:17:32;;;;;;;10.33;8.13;;;1.90;99.90;;;;;;5027645;28;20207;-59
2022/11/18 11:20:12;;;;;;;9.17;8.17;;;1.90;99.90;;;;;;5034413;28;20222;-59
2022/11/18 11:22:37;;;;;;;9.93;7.97;;;1.90;99.90;;;;;;5036365;28;20281;-59
2022/11/18 11:25:22;;;;;;;9.70;8.70;;;2.00;99.90;;;;;;5036895;28;20211;-58
2022/11/18 11:27:59;;;;;;;8.73;7.67;;;2.00;99.90;;;;;;5033176;28;20201;-59
2022/11/18 11:30:25;;;;;;;9.03;7.60;;;2.00;99.90;;;;;;5029341;28;20223;-59
2022/11/18 11:33:15;;;;;;;10.80;8.37;;;1.90;99.90;;;;;;5037482;28;20186;-59
2022/11/18 11:35:51;;;;;;;8.47;7.57;;;1.80;99.90;;;;;;5034203;28;20195;-59
2022/11/18 11:38:39;;;;;;;8.63;7.13;;;1.80;99.90;;;;;;5035927;28;20194;-59
2022/11/18 11:41:22;;;;;;;11.37;10.00;;;1.80;99.90;;;;;;5036496;28;20309;-59
2022/11/18 11:44:02;;;;;;;7.70;6.90;;;1.70;99.90;;;;;;5036009;28;20203;-58
2022/11/18 11:46:44;;;;;;;10.30;8.00;;;1.80;99.90;;;;;;5036045;28;20206;-58
2022/11/18 11:49:17;;;;;;;8.63;7.67;;;1.80;99.90;;;;;;5039420;28;20707;-59
2022/11/18 11:51:51;;;;;;;9.23;7.73;;;1.90;99.90;;;;;;5038886;28;21201;-60
2022/11/18 11:54:30;;;;;;;10.03;7.77;;;2.00;99.90;;;;;;5037427;28;20617;-59
2022/11/18 11:57:25;;;;;;;9.93;7.70;;;2.00;99.90;;;;;;5039457;28;20285;-58
2022/11/18 11:59:59;;;;;;;7.83;6.43;;;2.10;99.90;;;;;;5039437;28;20202;-59
2022/11/18 12:02:49;;;;;;;7.87;7.07;;;2.20;99.90;;;;;;5037278;28;20599;-65
2022/11/18 12:05:34;;;;;;;7.73;6.93;;;2.20;99.90;;;;;;5038906;28;20813;-60
2022/11/18 12:08:02;;;;;;;8.73;7.57;;;2.30;99.90;;;;;;5038241;28;20211;-59
2022/11/18 12:10:43;;;;;;;9.50;7.67;;;2.30;99.90;;;;;;5039749;28;20208;-59
2022/11/18 12:13:46;;;;;;;9.13;7.60;;;2.30;99.90;;;;;;5039360;28;20213;-58
2022/11/18 12:16:45;;;;;;;11.60;8.07;;;2.30;99.90;;;;;;5038647;28;20187;-58
2022/11/18 12:19:21;;;;;;;10.17;7.53;;;2.40;99.90;;;;;;5039040;28;20206;-58
2022/11/18 12:21:53;;;;;;;10.00;7.83;;;2.50;99.90;;;;;;5042008;28;20200;-58
2022/11/18 12:24:40;;;;;;;8.43;6.90;;;2.50;99.90;;;;;;5036655;28;20233;-58
2022/11/18 12:27:07;;;;;;;8.17;6.77;;;2.60;99.90;;;;;;5035765;28;20207;-58
2022/11/18 12:29:49;;;;;;;10.27;6.40;;;2.60;99.90;;;;;;5036014;28;20269;-58
2022/11/18 12:32:30;;;;;;;7.50;6.60;;;2.60;99.90;;;;;;5028047;28;20206;-58
2022/11/18 12:35:03;;;;;;;6.83;6.10;;;2.60;99.90;;;;;;5027693;28;20226;-57
2022/11/18 12:37:28;;;;;;;8.80;6.17;;;2.60;99.90;;;;;;5027445;28;20253;-58
2022/11/18 12:39:57;;;;;;;7.67;6.50;;;2.80;99.90;;;;;;5028754;28;20270;-58
2022/11/18 12:45:51;;;;;;;7.73;6.20;;;3.30;99.90;;;;;;5028086;28;20218;-58
2022/11/18 12:48:22;;;;;;;6.77;6.17;;;4.30;99.90;;;;;;5024391;28;20203;-57
2022/11/18 12:50:54;;;;;;;7.07;5.43;;;5.30;97.50;;;;;;5028869;28;20561;-59
2022/11/18 12:53:33;;;;;;;7.53;5.73;;;5.70;96.00;;;;;;5028225;28;21071;-58
2022/11/18 12:55:59;;;;;;;5.90;5.30;;;5.40;94.80;;;;;;5023850;28;20203;-58
2022/11/18 12:58:25;;;;;;;7.60;6.47;;;5.30;94.90;;;;;;5026998;28;20227;-58
2022/11/18 13:01:07;;;;;;;6.40;5.80;;;5.20;94.70;;;;;;5027436;28;20233;-58
2022/11/18 13:03:33;;;;;;;6.70;6.00;;;5.10;94.70;;;;;;5035271;28;20260;-58
2022/11/18 13:06:03;;;;;;;9.40;5.33;;;4.70;94.50;;;;;;5037675;28;20202;-58
2022/11/18 13:08:29;;;;;;;7.33;5.33;;;4.30;94.60;;;;;;5037464;28;20209;-58
2022/11/18 13:13:45;;;;;;;6.07;5.10;;;3.70;95.60;;;;;;5033106;28;20240;-58
2022/11/18 13:19:03;;;;;;;7.00;5.97;;;3.40;96.70;;;;;;5037579;28;20261;-58
2022/11/18 13:24:15;;;;;;;6.10;5.30;;;3.20;96.90;;;;;;5029755;28;20213;-59
2022/11/18 13:26:42;;;;;;;6.43;5.83;;;3.00;97.10;;;;;;5035444;28;20202;-59
2022/11/18 13:29:25;;;;;;;5.57;5.07;;;2.90;97.30;;;;;;5023632;28;20231;-58
2022/11/18 13:32:20;;;;;;;6.20;5.60;;;2.70;97.10;;;;;;5027796;28;20199;-58